sensor_id;sensor_type;location;lat;lon;timestamp;temperature;humidity
45969;DHT22;31676;40.444;-3.668;2023-02-15T00:01:24;19.80;75.80
45969;DHT22;31676;40.444;-3.668;2023-02-15T00:03:49;19.80;75.80
45969;DHT22;31676;40.444;-3.668;2023-02-15T00:06:15;19.80;76.40
45969;DHT22;31676;40.444;-3.668;2023-02-15T00:08:41;19.80;75.80
45969;DHT22;31676;40.444;-3.668;2023-02-15T00:11:07;19.80;75.80
45969;DHT22;31676;40.444;-3.668;2023-02-15T00:13:33;19.80;75.80
45969;DHT22;31676;40.444;-3.668;2023-02-15T00:16:04;19.80;75.80
45969;DHT22;31676;40.444;-3.668;2023-02-15T00:18:30;19.80;75.80
45969;DHT22;31676;40.444;-3.668;2023-02-15T00:20:56;19.80;75.80
45969;DHT22;31676;40.444;-3.668;2023-02-15T00:23:22;19.70;75.70
45969;DHT22;31676;40.444;-3.668;2023-02-15T00:25:47;19.80;75.80
45969;DHT22;31676;40.444;-3.668;2023-02-15T00:28:13;19.80;75.80
45969;DHT22;31676;40.444;-3.668;2023-02-15T00:30:39;19.80;75.80
45969;DHT22;31676;40.444;-3.668;2023-02-15T00:33:04;19.80;75.80
45969;DHT22;31676;40.444;-3.668;2023-02-15T00:35:30;19.80;75.80
45969;DHT22;31676;40.444;-3.668;2023-02-15T00:37:56;19.80;75.80
45969;DHT22;31676;40.444;-3.668;2023-02-15T00:40:21;19.70;75.80
45969;DHT22;31676;40.444;-3.668;2023-02-15T00:42:47;19.70;75.70
45969;DHT22;31676;40.444;-3.668;2023-02-15T00:45:13;19.70;75.70
45969;DHT22;31676;40.444;-3.668;2023-02-15T00:47:38;19.70;75.80
45969;DHT22;31676;40.444;-3.668;2023-02-15T00:50:04;19.70;75.70
45969;DHT22;31676;40.444;-3.668;2023-02-15T00:52:30;19.70;75.70
45969;DHT22;31676;40.444;-3.668;2023-02-15T00:54:56;19.70;75.80
45969;DHT22;31676;40.444;-3.668;2023-02-15T00:57:22;19.70;75.80
45969;DHT22;31676;40.444;-3.668;2023-02-15T00:59:47;19.70;75.80
45969;DHT22;31676;40.444;-3.668;2023-02-15T01:02:13;19.70;75.80
45969;DHT22;31676;40.444;-3.668;2023-02-15T01:04:39;19.70;75.80
45969;DHT22;31676;40.444;-3.668;2023-02-15T01:07:04;19.70;75.80
45969;DHT22;31676;40.444;-3.668;2023-02-15T01:09:30;19.70;75.80
45969;DHT22;31676;40.444;-3.668;2023-02-15T01:11:56;19.70;75.80
45969;DHT22;31676;40.444;-3.668;2023-02-15T01:14:21;19.70;75.80
45969;DHT22;31676;40.444;-3.668;2023-02-15T01:16:47;19.70;75.80
45969;DHT22;31676;40.444;-3.668;2023-02-15T01:19:13;19.70;75.80
45969;DHT22;31676;40.444;-3.668;2023-02-15T01:21:38;19.60;75.70
45969;DHT22;31676;40.444;-3.668;2023-02-15T01:24:10;19.70;75.80
45969;DHT22;31676;40.444;-3.668;2023-02-15T01:26:36;19.70;75.80
45969;DHT22;31676;40.444;-3.668;2023-02-15T01:29:02;19.60;75.70
45969;DHT22;31676;40.444;-3.668;2023-02-15T01:31:28;19.70;75.80
45969;DHT22;31676;40.444;-3.668;2023-02-15T01:33:53;19.70;75.80
45969;DHT22;31676;40.444;-3.668;2023-02-15T01:36:19;19.70;75.80
45969;DHT22;31676;40.444;-3.668;2023-02-15T01:38:45;19.70;75.80
45969;DHT22;31676;40.444;-3.668;2023-02-15T01:41:11;19.70;75.80
45969;DHT22;31676;40.444;-3.668;2023-02-15T01:43:46;19.60;75.80
45969;DHT22;31676;40.444;-3.668;2023-02-15T01:46:13;19.60;75.80
45969;DHT22;31676;40.444;-3.668;2023-02-15T01:48:46;19.60;75.80
45969;DHT22;31676;40.444;-3.668;2023-02-15T01:51:13;19.60;75.80
45969;DHT22;31676;40.444;-3.668;2023-02-15T01:53:42;19.70;75.80
45969;DHT22;31676;40.444;-3.668;2023-02-15T01:56:09;19.60;75.80
45969;DHT22;31676;40.444;-3.668;2023-02-15T01:58:36;19.70;75.80
45969;DHT22;31676;40.444;-3.668;2023-02-15T02:01:02;19.60;75.80
45969;DHT22;31676;40.444;-3.668;2023-02-15T02:03:42;19.70;75.80
45969;DHT22;31676;40.444;-3.668;2023-02-15T02:06:09;19.60;75.80
45969;DHT22;31676;40.444;-3.668;2023-02-15T02:08:35;19.70;75.80
45969;DHT22;31676;40.444;-3.668;2023-02-15T02:11:01;19.60;75.80
45969;DHT22;31676;40.444;-3.668;2023-02-15T02:13:26;19.60;75.80
45969;DHT22;31676;40.444;-3.668;2023-02-15T02:21:13;19.60;75.80
45969;DHT22;31676;40.444;-3.668;2023-02-15T02:34:43;19.60;75.80
45969;DHT22;31676;40.444;-3.668;2023-02-15T02:44:42;19.60;75.80
45969;DHT22;31676;40.444;-3.668;2023-02-15T02:49:45;19.60;75.80
45969;DHT22;31676;40.444;-3.668;2023-02-15T02:54:55;19.60;75.90
45969;DHT22;31676;40.444;-3.668;2023-02-15T02:57:21;19.60;75.90
45969;DHT22;31676;40.444;-3.668;2023-02-15T02:59:48;19.60;75.80
45969;DHT22;31676;40.444;-3.668;2023-02-15T03:02:22;19.60;75.80
45969;DHT22;31676;40.444;-3.668;2023-02-15T03:04:50;19.60;75.90
45969;DHT22;31676;40.444;-3.668;2023-02-15T03:07:23;19.60;75.90
45969;DHT22;31676;40.444;-3.668;2023-02-15T03:09:51;19.60;75.90
45969;DHT22;31676;40.444;-3.668;2023-02-15T03:12:21;19.60;75.90
45969;DHT22;31676;40.444;-3.668;2023-02-15T03:15:30;19.50;75.80
45969;DHT22;31676;40.444;-3.668;2023-02-15T03:17:37;19.60;75.90
45969;DHT22;31676;40.444;-3.668;2023-02-15T03:20:16;19.50;75.80
45969;DHT22;31676;40.444;-3.668;2023-02-15T03:22:45;19.50;75.80
45969;DHT22;31676;40.444;-3.668;2023-02-15T03:25:19;19.50;75.80
45969;DHT22;31676;40.444;-3.668;2023-02-15T03:27:49;19.60;75.90
45969;DHT22;31676;40.444;-3.668;2023-02-15T03:30:18;19.50;75.90
45969;DHT22;31676;40.444;-3.668;2023-02-15T03:32:45;19.60;75.90
45969;DHT22;31676;40.444;-3.668;2023-02-15T03:35:12;19.50;75.90
45969;DHT22;31676;40.444;-3.668;2023-02-15T03:37:42;19.50;75.90
45969;DHT22;31676;40.444;-3.668;2023-02-15T03:40:15;19.50;75.90
45969;DHT22;31676;40.444;-3.668;2023-02-15T03:45:55;19.50;75.90
45969;DHT22;31676;40.444;-3.668;2023-02-15T03:48:26;19.50;75.90
45969;DHT22;31676;40.444;-3.668;2023-02-15T03:50:57;19.50;75.90
45969;DHT22;31676;40.444;-3.668;2023-02-15T03:53:41;19.50;75.90
45969;DHT22;31676;40.444;-3.668;2023-02-15T03:56:08;19.50;75.90
45969;DHT22;31676;40.444;-3.668;2023-02-15T03:58:34;19.50;75.90
45969;DHT22;31676;40.444;-3.668;2023-02-15T04:01:22;19.50;75.90
45969;DHT22;31676;40.444;-3.668;2023-02-15T04:04:11;19.50;75.90
45969;DHT22;31676;40.444;-3.668;2023-02-15T04:06:38;19.50;75.90
45969;DHT22;31676;40.444;-3.668;2023-02-15T04:09:04;19.50;75.90
45969;DHT22;31676;40.444;-3.668;2023-02-15T04:11:48;19.50;75.90
45969;DHT22;31676;40.444;-3.668;2023-02-15T04:14:13;19.50;76.00
45969;DHT22;31676;40.444;-3.668;2023-02-15T04:16:58;19.50;75.90
45969;DHT22;31676;40.444;-3.668;2023-02-15T04:19:23;19.50;75.90
45969;DHT22;31676;40.444;-3.668;2023-02-15T04:22:07;19.50;75.90
45969;DHT22;31676;40.444;-3.668;2023-02-15T04:24:52;19.50;75.90
45969;DHT22;31676;40.444;-3.668;2023-02-15T04:27:36;19.50;76.00
45969;DHT22;31676;40.444;-3.668;2023-02-15T04:30:02;19.50;76.00
45969;DHT22;31676;40.444;-3.668;2023-02-15T04:32:28;19.50;76.00
45969;DHT22;31676;40.444;-3.668;2023-02-15T04:34:53;19.50;76.00
45969;DHT22;31676;40.444;-3.668;2023-02-15T04:37:19;19.50;76.00
45969;DHT22;31676;40.444;-3.668;2023-02-15T04:39:45;19.40;75.90
45969;DHT22;31676;40.444;-3.668;2023-02-15T04:42:10;19.50;76.00
45969;DHT22;31676;40.444;-3.668;2023-02-15T04:44:36;19.40;75.90
45969;DHT22;31676;40.444;-3.668;2023-02-15T04:47:02;19.40;75.90
45969;DHT22;31676;40.444;-3.668;2023-02-15T04:49:27;19.40;75.90
45969;DHT22;31676;40.444;-3.668;2023-02-15T04:51:53;19.40;75.90
45969;DHT22;31676;40.444;-3.668;2023-02-15T04:54:19;19.40;75.90
45969;DHT22;31676;40.444;-3.668;2023-02-15T04:56:44;19.40;75.90
45969;DHT22;31676;40.444;-3.668;2023-02-15T04:59:10;19.40;76.00
45969;DHT22;31676;40.444;-3.668;2023-02-15T05:01:36;19.40;76.00
45969;DHT22;31676;40.444;-3.668;2023-02-15T05:04:02;19.40;76.00
45969;DHT22;31676;40.444;-3.668;2023-02-15T05:06:28;19.40;76.00
45969;DHT22;31676;40.444;-3.668;2023-02-15T05:08:54;19.40;76.00
45969;DHT22;31676;40.444;-3.668;2023-02-15T05:11:19;19.40;76.00
45969;DHT22;31676;40.444;-3.668;2023-02-15T05:13:45;19.40;76.00
45969;DHT22;31676;40.444;-3.668;2023-02-15T05:16:11;19.40;76.00
45969;DHT22;31676;40.444;-3.668;2023-02-15T05:18:36;19.40;76.00
45969;DHT22;31676;40.444;-3.668;2023-02-15T05:21:02;19.40;76.00
45969;DHT22;31676;40.444;-3.668;2023-02-15T05:23:28;19.40;76.00
45969;DHT22;31676;40.444;-3.668;2023-02-15T05:25:53;19.40;76.00
45969;DHT22;31676;40.444;-3.668;2023-02-15T05:28:37;19.40;76.00
45969;DHT22;31676;40.444;-3.668;2023-02-15T05:31:10;19.40;76.00
45969;DHT22;31676;40.444;-3.668;2023-02-15T05:33:37;19.30;76.00
45969;DHT22;31676;40.444;-3.668;2023-02-15T05:36:03;19.40;76.00
45969;DHT22;31676;40.444;-3.668;2023-02-15T05:38:28;19.40;76.00
45969;DHT22;31676;40.444;-3.668;2023-02-15T05:40:54;19.40;76.00
45969;DHT22;31676;40.444;-3.668;2023-02-15T05:43:20;19.40;76.00
45969;DHT22;31676;40.444;-3.668;2023-02-15T05:45:50;19.30;76.00
45969;DHT22;31676;40.444;-3.668;2023-02-15T05:48:16;19.30;76.00
45969;DHT22;31676;40.444;-3.668;2023-02-15T05:50:42;19.40;76.00
45969;DHT22;31676;40.444;-3.668;2023-02-15T05:53:08;19.30;76.00
45969;DHT22;31676;40.444;-3.668;2023-02-15T05:55:34;19.40;76.00
45969;DHT22;31676;40.444;-3.668;2023-02-15T05:57:59;19.30;76.00
45969;DHT22;31676;40.444;-3.668;2023-02-15T06:00:25;19.40;76.00
45969;DHT22;31676;40.444;-3.668;2023-02-15T06:02:51;19.30;76.00
45969;DHT22;31676;40.444;-3.668;2023-02-15T06:05:16;19.40;76.00
45969;DHT22;31676;40.444;-3.668;2023-02-15T06:07:42;19.40;76.00
45969;DHT22;31676;40.444;-3.668;2023-02-15T06:10:08;19.40;76.10
45969;DHT22;31676;40.444;-3.668;2023-02-15T06:12:34;19.40;76.00
45969;DHT22;31676;40.444;-3.668;2023-02-15T06:15:00;19.40;76.00
45969;DHT22;31676;40.444;-3.668;2023-02-15T06:17:26;19.30;76.00
45969;DHT22;31676;40.444;-3.668;2023-02-15T06:19:51;19.30;76.00
45969;DHT22;31676;40.444;-3.668;2023-02-15T06:22:17;19.30;76.00
45969;DHT22;31676;40.444;-3.668;2023-02-15T06:24:43;19.30;76.00
45969;DHT22;31676;40.444;-3.668;2023-02-15T06:27:09;19.30;76.00
45969;DHT22;31676;40.444;-3.668;2023-02-15T06:29:35;19.30;76.00
45969;DHT22;31676;40.444;-3.668;2023-02-15T06:32:01;19.30;76.00
45969;DHT22;31676;40.444;-3.668;2023-02-15T06:34:27;19.30;76.00
45969;DHT22;31676;40.444;-3.668;2023-02-15T06:36:52;19.30;76.00
45969;DHT22;31676;40.444;-3.668;2023-02-15T06:39:18;19.30;76.10
45969;DHT22;31676;40.444;-3.668;2023-02-15T06:41:44;19.30;76.00
45969;DHT22;31676;40.444;-3.668;2023-02-15T06:44:09;19.30;76.00
45969;DHT22;31676;40.444;-3.668;2023-02-15T06:46:35;19.30;76.00
45969;DHT22;31676;40.444;-3.668;2023-02-15T06:49:00;19.30;76.00
45969;DHT22;31676;40.444;-3.668;2023-02-15T06:51:26;19.30;76.00
45969;DHT22;31676;40.444;-3.668;2023-02-15T06:53:52;19.30;76.00
45969;DHT22;31676;40.444;-3.668;2023-02-15T06:56:17;19.30;76.00
45969;DHT22;31676;40.444;-3.668;2023-02-15T06:58:43;19.30;76.00
45969;DHT22;31676;40.444;-3.668;2023-02-15T07:01:11;19.30;76.00
45969;DHT22;31676;40.444;-3.668;2023-02-15T07:03:37;19.30;76.00
45969;DHT22;31676;40.444;-3.668;2023-02-15T07:06:03;19.20;76.00
45969;DHT22;31676;40.444;-3.668;2023-02-15T07:08:31;19.30;76.10
45969;DHT22;31676;40.444;-3.668;2023-02-15T07:10:57;19.30;76.10
45969;DHT22;31676;40.444;-3.668;2023-02-15T07:13:42;19.30;76.10
45969;DHT22;31676;40.444;-3.668;2023-02-15T07:16:08;19.30;76.10
45969;DHT22;31676;40.444;-3.668;2023-02-15T07:18:35;19.30;76.10
45969;DHT22;31676;40.444;-3.668;2023-02-15T07:21:00;19.30;76.10
45969;DHT22;31676;40.444;-3.668;2023-02-15T07:23:26;19.30;76.10
45969;DHT22;31676;40.444;-3.668;2023-02-15T07:25:58;19.20;76.00
45969;DHT22;31676;40.444;-3.668;2023-02-15T07:28:24;19.30;76.10
45969;DHT22;31676;40.444;-3.668;2023-02-15T07:30:50;19.20;76.00
45969;DHT22;31676;40.444;-3.668;2023-02-15T07:33:15;19.20;76.00
45969;DHT22;31676;40.444;-3.668;2023-02-15T07:35:53;19.20;76.00
45969;DHT22;31676;40.444;-3.668;2023-02-15T07:38:19;19.20;76.00
45969;DHT22;31676;40.444;-3.668;2023-02-15T07:40:45;19.20;76.00
45969;DHT22;31676;40.444;-3.668;2023-02-15T07:43:11;19.30;76.20
45969;DHT22;31676;40.444;-3.668;2023-02-15T07:45:37;19.20;76.10
45969;DHT22;31676;40.444;-3.668;2023-02-15T07:48:03;19.20;76.00
45969;DHT22;31676;40.444;-3.668;2023-02-15T07:50:29;19.20;76.10
45969;DHT22;31676;40.444;-3.668;2023-02-15T07:52:55;19.20;76.10
45969;DHT22;31676;40.444;-3.668;2023-02-15T07:55:21;19.20;76.00
45969;DHT22;31676;40.444;-3.668;2023-02-15T07:57:47;19.20;76.10
45969;DHT22;31676;40.444;-3.668;2023-02-15T08:00:14;19.20;76.10
45969;DHT22;31676;40.444;-3.668;2023-02-15T08:02:40;19.20;76.10
45969;DHT22;31676;40.444;-3.668;2023-02-15T08:05:06;19.20;76.10
45969;DHT22;31676;40.444;-3.668;2023-02-15T08:07:32;19.20;76.10
45969;DHT22;31676;40.444;-3.668;2023-02-15T08:09:57;19.20;76.10
45969;DHT22;31676;40.444;-3.668;2023-02-15T08:12:27;19.20;76.10
45969;DHT22;31676;40.444;-3.668;2023-02-15T08:14:53;19.20;76.10
45969;DHT22;31676;40.444;-3.668;2023-02-15T08:17:18;19.20;76.10
45969;DHT22;31676;40.444;-3.668;2023-02-15T08:19:44;19.20;76.10
45969;DHT22;31676;40.444;-3.668;2023-02-15T08:22:12;19.20;76.10
45969;DHT22;31676;40.444;-3.668;2023-02-15T08:24:39;19.20;76.10
45969;DHT22;31676;40.444;-3.668;2023-02-15T08:27:06;19.20;76.10
45969;DHT22;31676;40.444;-3.668;2023-02-15T08:29:33;19.20;76.10
45969;DHT22;31676;40.444;-3.668;2023-02-15T08:32:00;19.20;76.10
45969;DHT22;31676;40.444;-3.668;2023-02-15T08:34:31;19.20;76.10
45969;DHT22;31676;40.444;-3.668;2023-02-15T08:36:57;19.20;76.10
45969;DHT22;31676;40.444;-3.668;2023-02-15T08:39:23;19.20;76.10
45969;DHT22;31676;40.444;-3.668;2023-02-15T08:41:49;19.20;76.20
45969;DHT22;31676;40.444;-3.668;2023-02-15T08:44:15;19.20;76.10
45969;DHT22;31676;40.444;-3.668;2023-02-15T08:46:43;19.20;76.10
45969;DHT22;31676;40.444;-3.668;2023-02-15T08:49:09;19.20;76.10
45969;DHT22;31676;40.444;-3.668;2023-02-15T08:51:37;19.20;76.10
45969;DHT22;31676;40.444;-3.668;2023-02-15T08:54:11;19.20;76.10
45969;DHT22;31676;40.444;-3.668;2023-02-15T08:56:38;19.20;76.20
45969;DHT22;31676;40.444;-3.668;2023-02-15T08:59:04;19.20;76.10
45969;DHT22;31676;40.444;-3.668;2023-02-15T09:01:31;19.20;76.10
45969;DHT22;31676;40.444;-3.668;2023-02-15T09:03:58;19.20;76.10
45969;DHT22;31676;40.444;-3.668;2023-02-15T09:06:24;19.10;76.00
45969;DHT22;31676;40.444;-3.668;2023-02-15T09:08:50;19.20;76.10
45969;DHT22;31676;40.444;-3.668;2023-02-15T09:11:20;19.20;76.10
45969;DHT22;31676;40.444;-3.668;2023-02-15T09:13:49;19.20;76.10
45969;DHT22;31676;40.444;-3.668;2023-02-15T09:16:16;19.20;76.10
45969;DHT22;31676;40.444;-3.668;2023-02-15T09:18:42;19.20;76.10
45969;DHT22;31676;40.444;-3.668;2023-02-15T09:21:09;19.20;76.10
45969;DHT22;31676;40.444;-3.668;2023-02-15T09:23:35;19.20;76.10
45969;DHT22;31676;40.444;-3.668;2023-02-15T09:26:03;19.20;76.10
45969;DHT22;31676;40.444;-3.668;2023-02-15T09:28:28;19.20;76.00
45969;DHT22;31676;40.444;-3.668;2023-02-15T09:30:54;19.20;76.00
45969;DHT22;31676;40.444;-3.668;2023-02-15T09:33:20;19.20;76.00
45969;DHT22;31676;40.444;-3.668;2023-02-15T09:35:47;19.20;76.10
45969;DHT22;31676;40.444;-3.668;2023-02-15T09:38:13;19.20;76.00
45969;DHT22;31676;40.444;-3.668;2023-02-15T09:40:42;19.20;76.00
45969;DHT22;31676;40.444;-3.668;2023-02-15T09:43:16;19.20;76.00
45969;DHT22;31676;40.444;-3.668;2023-02-15T10:09:16;19.20;76.00
45969;DHT22;31676;40.444;-3.668;2023-02-15T10:11:53;19.20;76.00
45969;DHT22;31676;40.444;-3.668;2023-02-15T10:14:32;19.20;75.90
45969;DHT22;31676;40.444;-3.668;2023-02-15T10:22:07;19.20;75.90
45969;DHT22;31676;40.444;-3.668;2023-02-15T10:27:04;19.20;75.90
45969;DHT22;31676;40.444;-3.668;2023-02-15T10:29:37;19.20;75.90
45969;DHT22;31676;40.444;-3.668;2023-02-15T10:37:44;19.20;75.90
45969;DHT22;31676;40.444;-3.668;2023-02-15T10:42:50;19.20;75.80
45969;DHT22;31676;40.444;-3.668;2023-02-15T10:45:23;19.20;75.80
45969;DHT22;31676;40.444;-3.668;2023-02-15T10:50:57;19.30;75.90
45969;DHT22;31676;40.444;-3.668;2023-02-15T10:55:40;19.30;75.90
45969;DHT22;31676;40.444;-3.668;2023-02-15T10:58:26;19.30;75.90
45969;DHT22;31676;40.444;-3.668;2023-02-15T11:00:57;19.30;76.00
45969;DHT22;31676;40.444;-3.668;2023-02-15T11:03:35;19.30;75.80
45969;DHT22;31676;40.444;-3.668;2023-02-15T11:08:29;19.30;75.90
45969;DHT22;31676;40.444;-3.668;2023-02-15T11:11:05;19.30;75.80
45969;DHT22;31676;40.444;-3.668;2023-02-15T11:13:33;19.30;75.80
45969;DHT22;31676;40.444;-3.668;2023-02-15T11:16:04;19.30;75.80
45969;DHT22;31676;40.444;-3.668;2023-02-15T11:18:32;19.30;75.80
45969;DHT22;31676;40.444;-3.668;2023-02-15T11:21:01;19.30;75.80
45969;DHT22;31676;40.444;-3.668;2023-02-15T11:23:28;19.30;75.80
45969;DHT22;31676;40.444;-3.668;2023-02-15T11:26:00;19.30;75.80
45969;DHT22;31676;40.444;-3.668;2023-02-15T11:28:48;19.30;75.80
45969;DHT22;31676;40.444;-3.668;2023-02-15T11:31:17;19.30;75.80
45969;DHT22;31676;40.444;-3.668;2023-02-15T11:33:45;19.30;75.80
45969;DHT22;31676;40.444;-3.668;2023-02-15T11:38:37;19.30;75.80
45969;DHT22;31676;40.444;-3.668;2023-02-15T11:41:12;19.30;75.80
45969;DHT22;31676;40.444;-3.668;2023-02-15T11:43:50;19.30;75.80
45969;DHT22;31676;40.444;-3.668;2023-02-15T11:46:16;19.30;75.80
45969;DHT22;31676;40.444;-3.668;2023-02-15T11:48:44;19.30;75.70
45969;DHT22;31676;40.444;-3.668;2023-02-15T11:51:11;19.30;75.70
45969;DHT22;31676;40.444;-3.668;2023-02-15T11:53:38;19.40;75.80
45969;DHT22;31676;40.444;-3.668;2023-02-15T11:56:04;19.30;75.70
45969;DHT22;31676;40.444;-3.668;2023-02-15T11:58:40;19.30;75.70
45969;DHT22;31676;40.444;-3.668;2023-02-15T12:01:09;19.40;75.80
45969;DHT22;31676;40.444;-3.668;2023-02-15T12:03:46;19.40;75.80
45969;DHT22;31676;40.444;-3.668;2023-02-15T12:06:18;19.30;75.70
45969;DHT22;31676;40.444;-3.668;2023-02-15T12:08:48;19.40;75.70
45969;DHT22;31676;40.444;-3.668;2023-02-15T12:11:17;19.40;75.70
45969;DHT22;31676;40.444;-3.668;2023-02-15T12:16:19;19.40;75.70
45969;DHT22;31676;40.444;-3.668;2023-02-15T12:18:45;19.40;75.70
45969;DHT22;31676;40.444;-3.668;2023-02-15T12:21:14;19.40;75.70
45969;DHT22;31676;40.444;-3.668;2023-02-15T12:23:46;19.40;75.70
45969;DHT22;31676;40.444;-3.668;2023-02-15T12:26:13;19.40;75.70
45969;DHT22;31676;40.444;-3.668;2023-02-15T12:28:42;19.40;75.60
45969;DHT22;31676;40.444;-3.668;2023-02-15T12:31:20;19.40;75.70
45969;DHT22;31676;40.444;-3.668;2023-02-15T12:33:46;19.40;75.60
45969;DHT22;31676;40.444;-3.668;2023-02-15T12:36:15;19.40;75.60
45969;DHT22;31676;40.444;-3.668;2023-02-15T12:38:43;19.40;75.60
45969;DHT22;31676;40.444;-3.668;2023-02-15T12:43:43;19.40;75.60
45969;DHT22;31676;40.444;-3.668;2023-02-15T12:46:20;19.40;75.60
45969;DHT22;31676;40.444;-3.668;2023-02-15T12:48:46;19.40;75.60
45969;DHT22;31676;40.444;-3.668;2023-02-15T12:51:14;19.40;75.60
45969;DHT22;31676;40.444;-3.668;2023-02-15T12:53:40;19.50;75.70
45969;DHT22;31676;40.444;-3.668;2023-02-15T12:56:07;19.40;75.60
45969;DHT22;31676;40.444;-3.668;2023-02-15T12:58:43;19.50;76.30
45969;DHT22;31676;40.444;-3.668;2023-02-15T13:01:15;19.40;75.60
45969;DHT22;31676;40.444;-3.668;2023-02-15T13:06:22;19.50;75.60
45969;DHT22;31676;40.444;-3.668;2023-02-15T13:08:49;19.50;75.60
45969;DHT22;31676;40.444;-3.668;2023-02-15T13:11:25;19.50;75.60
45969;DHT22;31676;40.444;-3.668;2023-02-15T13:13:56;19.50;75.60
45969;DHT22;31676;40.444;-3.668;2023-02-15T13:16:30;19.50;75.60
45969;DHT22;31676;40.444;-3.668;2023-02-15T13:18:56;19.50;75.60
45969;DHT22;31676;40.444;-3.668;2023-02-15T13:21:30;19.50;75.60
45969;DHT22;31676;40.444;-3.668;2023-02-15T13:23:59;19.50;75.60
45969;DHT22;31676;40.444;-3.668;2023-02-15T13:26:26;19.50;75.60
45969;DHT22;31676;40.444;-3.668;2023-02-15T13:28:55;19.50;75.60
45969;DHT22;31676;40.444;-3.668;2023-02-15T13:31:26;19.50;75.50
45969;DHT22;31676;40.444;-3.668;2023-02-15T13:33:54;19.50;75.50
45969;DHT22;31676;40.444;-3.668;2023-02-15T13:36:34;19.50;75.50
45969;DHT22;31676;40.444;-3.668;2023-02-15T13:49:03;19.60;75.50
45969;DHT22;31676;40.444;-3.668;2023-02-15T13:54:28;19.60;75.60
45969;DHT22;31676;40.444;-3.668;2023-02-15T14:21:10;19.60;75.50
45969;DHT22;31676;40.444;-3.668;2023-02-15T14:26:27;19.60;75.50
45969;DHT22;31676;40.444;-3.668;2023-02-15T14:32:08;19.60;75.50
45969;DHT22;31676;40.444;-3.668;2023-02-15T14:37:01;19.70;75.50
45969;DHT22;31676;40.444;-3.668;2023-02-15T14:45:24;19.70;75.50
45969;DHT22;31676;40.444;-3.668;2023-02-15T14:47:39;19.70;75.50
45969;DHT22;31676;40.444;-3.668;2023-02-15T14:55:36;19.70;75.50
45969;DHT22;31676;40.444;-3.668;2023-02-15T14:58:02;19.70;75.50
45969;DHT22;31676;40.444;-3.668;2023-02-15T15:00:33;19.70;75.40
45969;DHT22;31676;40.444;-3.668;2023-02-15T15:03:02;19.70;76.10
45969;DHT22;31676;40.444;-3.668;2023-02-15T15:05:35;19.70;75.50
45969;DHT22;31676;40.444;-3.668;2023-02-15T15:08:20;19.70;75.50
45969;DHT22;31676;40.444;-3.668;2023-02-15T15:10:46;19.70;75.40
45969;DHT22;31676;40.444;-3.668;2023-02-15T15:15:56;19.70;75.50
45969;DHT22;31676;40.444;-3.668;2023-02-15T15:21:07;19.70;75.40
45969;DHT22;31676;40.444;-3.668;2023-02-15T15:23:36;19.70;75.40
45969;DHT22;31676;40.444;-3.668;2023-02-15T15:31:29;19.70;75.50
45969;DHT22;31676;40.444;-3.668;2023-02-15T15:49:19;19.70;75.50
45969;DHT22;31676;40.444;-3.668;2023-02-15T15:51:45;19.70;75.50
45969;DHT22;31676;40.444;-3.668;2023-02-15T15:54:14;19.70;75.50
45969;DHT22;31676;40.444;-3.668;2023-02-15T15:56:40;19.70;75.50
45969;DHT22;31676;40.444;-3.668;2023-02-15T15:59:16;19.70;75.50
45969;DHT22;31676;40.444;-3.668;2023-02-15T16:01:44;19.70;75.50
45969;DHT22;31676;40.444;-3.668;2023-02-15T16:04:14;19.70;75.50
45969;DHT22;31676;40.444;-3.668;2023-02-15T16:06:47;19.70;75.50
45969;DHT22;31676;40.444;-3.668;2023-02-15T16:11:38;19.60;75.40
45969;DHT22;31676;40.444;-3.668;2023-02-15T16:14:20;19.70;75.50
45969;DHT22;31676;40.444;-3.668;2023-02-15T16:16:51;19.60;75.50
45969;DHT22;31676;40.444;-3.668;2023-02-15T16:19:18;19.60;75.40
45969;DHT22;31676;40.444;-3.668;2023-02-15T16:21:46;19.70;75.50
45969;DHT22;31676;40.444;-3.668;2023-02-15T16:24:26;19.60;75.40
45969;DHT22;31676;40.444;-3.668;2023-02-15T16:26:58;19.70;75.50
45969;DHT22;31676;40.444;-3.668;2023-02-15T16:29:31;19.60;75.50
45969;DHT22;31676;40.444;-3.668;2023-02-15T16:32:03;19.60;75.50
45969;DHT22;31676;40.444;-3.668;2023-02-15T16:34:31;19.60;75.50
45969;DHT22;31676;40.444;-3.668;2023-02-15T16:37:14;19.60;75.50
45969;DHT22;31676;40.444;-3.668;2023-02-15T16:39:42;19.60;75.50
45969;DHT22;31676;40.444;-3.668;2023-02-15T16:42:09;19.60;75.50
45969;DHT22;31676;40.444;-3.668;2023-02-15T16:44:36;19.60;75.50
45969;DHT22;31676;40.444;-3.668;2023-02-15T16:47:02;19.60;75.50
45969;DHT22;31676;40.444;-3.668;2023-02-15T16:49:28;19.60;75.50
45969;DHT22;31676;40.444;-3.668;2023-02-15T16:51:55;19.60;75.50
45969;DHT22;31676;40.444;-3.668;2023-02-15T16:54:22;19.60;75.50
45969;DHT22;31676;40.444;-3.668;2023-02-15T16:56:49;19.60;75.50
45969;DHT22;31676;40.444;-3.668;2023-02-15T16:59:17;19.60;75.50
45969;DHT22;31676;40.444;-3.668;2023-02-15T17:01:45;19.60;75.50
45969;DHT22;31676;40.444;-3.668;2023-02-15T17:09:53;19.60;75.60
45969;DHT22;31676;40.444;-3.668;2023-02-15T17:15:03;19.60;75.50
45969;DHT22;31676;40.444;-3.668;2023-02-15T17:17:30;19.60;75.50
45969;DHT22;31676;40.444;-3.668;2023-02-15T17:19:57;19.60;75.50
45969;DHT22;31676;40.444;-3.668;2023-02-15T17:22:23;19.60;75.50
45969;DHT22;31676;40.444;-3.668;2023-02-15T17:24:49;19.60;75.50
45969;DHT22;31676;40.444;-3.668;2023-02-15T17:27:23;19.60;75.50
45969;DHT22;31676;40.444;-3.668;2023-02-15T17:30:13;19.60;75.50
45969;DHT22;31676;40.444;-3.668;2023-02-15T17:32:36;19.60;75.50
45969;DHT22;31676;40.444;-3.668;2023-02-15T17:35:08;19.60;75.50
45969;DHT22;31676;40.444;-3.668;2023-02-15T17:37:48;19.60;75.50
45969;DHT22;31676;40.444;-3.668;2023-02-15T17:40:17;19.60;75.50
45969;DHT22;31676;40.444;-3.668;2023-02-15T17:42:43;19.60;75.50
45969;DHT22;31676;40.444;-3.668;2023-02-15T17:45:09;19.60;75.50
45969;DHT22;31676;40.444;-3.668;2023-02-15T17:47:34;19.60;75.50
45969;DHT22;31676;40.444;-3.668;2023-02-15T17:50:01;19.60;75.60
45969;DHT22;31676;40.444;-3.668;2023-02-15T17:52:28;19.60;75.60
45969;DHT22;31676;40.444;-3.668;2023-02-15T17:54:54;19.60;75.60
45969;DHT22;31676;40.444;-3.668;2023-02-15T17:57:39;19.60;75.60
45969;DHT22;31676;40.444;-3.668;2023-02-15T18:00:05;19.60;75.60
45969;DHT22;31676;40.444;-3.668;2023-02-15T18:02:49;19.60;75.50
45969;DHT22;31676;40.444;-3.668;2023-02-15T18:05:34;19.60;75.60
45969;DHT22;31676;40.444;-3.668;2023-02-15T18:08:18;19.60;75.60
45969;DHT22;31676;40.444;-3.668;2023-02-15T18:11:05;19.60;75.50
45969;DHT22;31676;40.444;-3.668;2023-02-15T18:13:49;19.60;75.60
45969;DHT22;31676;40.444;-3.668;2023-02-15T18:16:21;19.60;75.50
45969;DHT22;31676;40.444;-3.668;2023-02-15T18:18:48;19.60;75.60
45969;DHT22;31676;40.444;-3.668;2023-02-15T18:21:14;19.60;75.60
45969;DHT22;31676;40.444;-3.668;2023-02-15T18:23:40;19.60;75.60
45969;DHT22;31676;40.444;-3.668;2023-02-15T18:26:08;19.60;75.60
45969;DHT22;31676;40.444;-3.668;2023-02-15T18:28:34;19.60;75.60